Time;durP1;ratioP1;P1;durP2;ratioP2;P2;SDS_P1;SDS_P2;PMS_P1;PMS_P2;Temp;Humidity;BMP_temperature;BMP_pressure;BME280_temperature;BME280_humidity;BME280_pressure;Samples;Min_cycle;Max_cycle;Signal;HPM_P1;HPM_P2
2022/02/10 00:14:29;;;;;;;8.82;4.57;;;8.30;99.90;;;;;;5031617;28;20551;-67
2022/02/10 00:21:57;;;;;;;9.30;5.22;;;8.30;99.90;;;;;;5032344;28;20026;-68
2022/02/10 00:35:21;;;;;;;9.95;6.22;;;8.10;99.90;;;;;;5031426;28;20041;-66
2022/02/10 00:37:59;;;;;;;8.57;5.45;;;8.00;99.90;;;;;;5031073;28;20124;-68
2022/02/10 00:40:36;;;;;;;8.43;5.85;;;7.90;99.90;;;;;;5030747;28;20037;-68
2022/02/10 00:43:04;;;;;;;15.02;5.80;;;7.80;99.90;;;;;;5031289;28;20052;-67
2022/02/10 00:45:32;;;;;;;8.00;5.43;;;7.80;99.90;;;;;;5030818;28;20025;-66
2022/02/10 00:48:08;;;;;;;10.65;6.30;;;7.80;99.90;;;;;;5031930;28;20018;-66
2022/02/10 00:50:36;;;;;;;9.98;5.82;;;7.80;99.90;;;;;;5031024;28;20052;-68
2022/02/10 00:53:09;;;;;;;12.40;6.07;;;7.80;99.90;;;;;;5031739;28;20034;-67
2022/02/10 00:55:38;;;;;;;8.93;5.47;;;7.80;99.90;;;;;;5032363;28;20025;-66
2022/02/10 00:58:08;;;;;;;9.50;4.93;;;7.80;99.90;;;;;;5031580;28;20025;-67
2022/02/10 01:02:17;;;;;;;10.23;6.30;;;7.90;99.90;;;;;;5032220;28;20041;-66
2022/02/10 01:14:31;;;;;;;7.93;5.55;;;8.10;99.90;;;;;;5031566;28;20419;-65
2022/02/10 01:30:24;;;;;;;10.13;5.03;;;8.00;99.90;;;;;;5032128;28;20160;-66
2022/02/10 01:32:54;;;;;;;9.48;6.70;;;8.10;99.90;;;;;;5034908;28;20526;-66
2022/02/10 01:35:22;;;;;;;9.93;5.55;;;8.00;99.90;;;;;;5033150;28;20033;-67
2022/02/10 01:37:48;;;;;;;12.02;5.65;;;8.00;99.90;;;;;;5033214;28;20036;-66
2022/02/10 01:40:23;;;;;;;9.60;6.20;;;8.00;99.90;;;;;;5033216;28;20022;-67
2022/02/10 02:04:44;;;;;;;11.85;6.60;;;7.40;99.90;;;;;;5034873;28;20045;-66
2022/02/10 02:07:10;;;;;;;10.65;6.90;;;7.30;99.90;;;;;;5034353;28;20029;-67
2022/02/10 02:09:36;;;;;;;12.05;7.20;;;7.30;99.90;;;;;;5033573;28;20463;-70
2022/02/10 02:12:06;;;;;;;17.40;8.00;;;7.20;99.90;;;;;;5034070;28;20061;-68
2022/02/10 02:14:32;;;;;;;20.75;8.13;;;7.10;99.90;;;;;;5034268;28;20558;-68
2022/02/10 02:17:01;;;;;;;11.98;7.15;;;7.20;99.90;;;;;;5036026;28;20117;-68
2022/02/10 02:19:26;;;;;;;9.23;6.25;;;7.10;99.90;;;;;;5035758;28;20029;-68
2022/02/10 02:21:59;;;;;;;12.85;6.95;;;7.10;99.90;;;;;;5036640;28;20044;-66
2022/02/10 02:24:25;;;;;;;9.57;7.00;;;7.00;99.90;;;;;;5034946;28;20057;-66
2022/02/10 02:26:53;;;;;;;12.55;7.47;;;7.10;99.90;;;;;;5034174;28;20108;-66
2022/02/10 02:29:28;;;;;;;11.00;6.60;;;7.00;99.90;;;;;;5033683;28;20048;-65
2022/02/10 02:32:01;;;;;;;10.68;6.47;;;7.00;99.90;;;;;;5033371;28;20034;-65
2022/02/10 03:07:04;;;;;;;10.63;7.50;;;7.10;99.90;;;;;;5033582;28;20037;-67
2022/02/10 03:09:30;;;;;;;13.70;7.85;;;7.20;99.90;;;;;;5032853;28;20037;-68
2022/02/10 03:11:58;;;;;;;11.00;7.88;;;7.30;99.90;;;;;;5032049;28;20455;-66
2022/02/10 03:14:30;;;;;;;14.07;7.65;;;7.30;99.90;;;;;;5032725;28;20037;-67
2022/02/10 04:15:24;;;;;;;16.33;8.98;;;6.10;99.90;;;;;;5034571;28;20025;-67
2022/02/10 04:23:14;;;;;;;12.77;7.13;;;6.10;99.90;;;;;;5033025;28;20045;-66
2022/02/10 04:28:45;;;;;;;13.60;8.20;;;5.90;99.90;;;;;;5032922;28;20061;-67
2022/02/10 05:14:49;;;;;;;10.27;6.60;;;6.10;99.90;;;;;;5035061;28;20064;-67
2022/02/10 05:22:11;;;;;;;13.60;8.60;;;6.20;99.90;;;;;;5033468;28;20116;-66
2022/02/10 05:34:55;;;;;;;13.35;6.90;;;6.20;99.90;;;;;;5035429;28;20033;-68
2022/02/10 05:37:24;;;;;;;10.98;7.25;;;6.10;99.90;;;;;;5033462;28;20029;-66
2022/02/10 05:39:53;;;;;;;15.85;7.50;;;6.20;99.90;;;;;;5035201;28;20033;-70
2022/02/10 05:45:25;;;;;;;11.70;7.90;;;6.20;99.90;;;;;;5035099;28;20379;-67
2022/02/10 05:50:57;;;;;;;19.40;8.13;;;6.20;99.90;;;;;;5035527;28;20026;-68
2022/02/10 05:55:54;;;;;;;11.45;7.97;;;6.20;99.90;;;;;;5036041;28;20033;-70
2022/02/10 05:58:55;;;;;;;11.48;7.68;;;6.20;99.90;;;;;;5037217;28;20029;-71
2022/02/10 06:51:07;;;;;;;12.45;7.60;;;5.60;99.90;;;;;;5033969;28;20126;-68
2022/02/10 06:53:42;;;;;;;13.52;7.43;;;5.60;99.90;;;;;;5032721;28;20037;-68
2022/02/10 07:06:56;;;;;;;13.75;7.43;;;5.70;99.90;;;;;;5033709;28;20029;-69
2022/02/10 07:12:18;;;;;;;15.30;8.25;;;5.80;99.90;;;;;;5032997;28;20041;-67
2022/02/10 08:57:52;;;;;;;18.58;7.80;;;7.50;99.90;;;;;;5032565;28;20196;-66
2022/02/10 09:11:22;;;;;;;11.75;6.72;;;7.20;99.90;;;;;;5035059;28;20482;-68
2022/02/10 10:02:14;;;;;;;17.42;7.60;;;7.40;99.90;;;;;;5033473;28;20453;-67
2022/02/10 10:04:53;;;;;;;19.08;6.93;;;7.60;99.90;;;;;;5032274;28;20049;-68
2022/02/10 10:07:32;;;;;;;15.05;8.13;;;7.60;99.90;;;;;;5033716;28;20040;-68
2022/02/10 10:11:10;;;;;;;15.68;7.93;;;7.60;99.90;;;;;;5033415;28;20109;-67
2022/02/10 10:16:28;;;;;;;15.93;7.55;;;7.50;99.90;;;;;;5033120;28;20043;-68
2022/02/10 10:24:29;;;;;;;11.55;7.82;;;7.50;99.90;;;;;;4990304;28;1253227;-67
2022/02/10 10:56:54;;;;;;;13.05;8.65;;;8.00;99.90;;;;;;5033270;28;20033;-68
2022/02/10 10:59:37;;;;;;;12.43;7.45;;;8.00;99.90;;;;;;5034000;28;20025;-66
2022/02/10 11:06:34;;;;;;;17.02;8.60;;;8.00;99.90;;;;;;5060674;28;20040;-69
2022/02/10 11:38:10;;;;;;;;;;;8.10;99.90;;;;;;5033811;28;20015;-67
2022/02/10 11:46:37;;;;;;;;;;;8.20;99.90;;;;;;5024410;28;19925;-69
2022/02/10 12:01:07;;;;;;;;;;;8.20;99.90;;;;;;5020730;28;19932;-68
2022/02/10 12:33:27;;;;;;;;;;;8.60;99.90;;;;;;5027579;28;19964;-68
2022/02/10 12:38:41;;;;;;;;;;;8.50;99.90;;;;;;5029650;28;19909;-68
2022/02/10 13:36:20;;;;;;;;;;;8.80;99.90;;;;;;5041148;28;19913;-69
2022/02/10 14:09:02;;;;;;;;;;;8.50;99.90;;;;;;5025766;28;19933;-68
2022/02/10 14:16:43;;;;;;;;;;;9.50;99.90;;;;;;5030056;28;19909;-69
2022/02/10 14:19:16;;;;;;;;;;;9.70;99.90;;;;;;5029975;28;19909;-69
2022/02/10 14:27:14;;;;;;;;;;;9.40;99.90;;;;;;5027996;28;20008;-70
2022/02/10 14:29:41;;;;;;;;;;;9.40;99.90;;;;;;5027772;28;19984;-68
2022/02/10 14:32:09;;;;;;;;;;;9.10;99.90;;;;;;5023326;28;19917;-67
2022/02/10 14:34:34;;;;;;;;;;;9.20;99.90;;;;;;5025837;28;20405;-69
2022/02/10 15:32:26;;;;;;;;;;;8.80;99.90;;;;;;5029160;28;19958;-67
2022/02/10 15:52:26;;;;;;;;;;;8.60;99.90;;;;;;5012811;28;19917;-67
2022/02/10 15:55:27;;;;;;;;;;;8.60;99.90;;;;;;5012965;28;19995;-68
2022/02/10 16:14:50;;;;;;;;;;;8.50;99.90;;;;;;5006338;28;19922;-66
2022/02/10 16:17:12;;;;;;;;;;;8.60;99.90;;;;;;5006119;28;20032;-68
2022/02/10 16:19:38;;;;;;;;;;;8.50;99.90;;;;;;5043379;28;19939;-69
2022/02/10 16:24:32;;;;;;;;;;;8.50;99.90;;;;;;5019343;28;19956;-69
2022/02/10 16:27:06;;;;;;;;;;;8.50;99.90;;;;;;5025887;28;20286;-68
2022/02/10 16:29:33;;;;;;;;;;;8.50;99.90;;;;;;5025899;28;20282;-68
2022/02/10 16:31:58;;;;;;;;;;;8.50;99.90;;;;;;5029756;28;19917;-74
2022/02/10 16:34:24;;;;;;;;;;;8.40;99.90;;;;;;5027103;28;20450;-66
2022/02/10 16:36:52;;;;;;;;;;;8.50;99.90;;;;;;5027979;28;19920;-71
2022/02/10 16:39:18;;;;;;;;;;;8.50;99.90;;;;;;5027280;28;19913;-69
2022/02/10 16:41:44;;;;;;;;;;;10.30;99.90;;;;;;5028672;28;19909;-67
2022/02/10 16:44:10;;;;;;;;;;;10.30;99.90;;;;;;5025960;28;19999;-68
2022/02/10 16:46:35;;;;;;;;;;;10.10;99.90;;;;;;5023731;28;19909;-67
2022/02/10 16:49:01;;;;;;;;;;;9.60;99.90;;;;;;5023138;28;19917;-69
2022/02/10 16:51:27;;;;;;;;;;;9.00;99.90;;;;;;5028728;28;20007;-70
2022/02/10 16:54:01;;;;;;;;;;;8.80;99.90;;;;;;5023351;28;19921;-71
2022/02/10 16:56:34;;;;;;;;;;;8.60;99.90;;;;;;5027071;28;20000;-70
2022/02/10 16:59:24;;;;;;;;;;;8.50;99.90;;;;;;5029475;28;19916;-70
2022/02/10 17:20:48;;;;;;;;;;;8.20;99.90;;;;;;5024915;28;20384;-69
2022/02/10 17:26:27;;;;;;;;;;;8.20;99.90;;;;;;5034184;28;19966;-70
2022/02/10 17:28:51;;;;;;;;;;;8.20;99.90;;;;;;5032047;28;19913;-80
2022/02/10 17:36:44;;;;;;;;;;;8.20;99.90;;;;;;5035887;28;19908;-68
2022/02/10 17:42:23;;;;;;;;;;;8.10;99.90;;;;;;5036234;28;19935;-70
2022/02/10 17:52:56;;;;;;;;;;;8.00;99.90;;;;;;5038740;28;20012;-70
2022/02/10 17:55:22;;;;;;;;;;;8.00;99.90;;;;;;5028228;28;20027;-71
2022/02/10 17:57:48;;;;;;;;;;;7.90;99.90;;;;;;5037562;28;20338;-72
2022/02/10 18:00:14;;;;;;;;;;;7.80;99.90;;;;;;5031653;28;19960;-71
2022/02/10 18:02:39;;;;;;;;;;;7.70;99.90;;;;;;5031368;28;19916;-70
2022/02/10 18:05:07;;;;;;;;;;;7.70;99.90;;;;;;5043000;28;19916;-70
2022/02/10 18:07:33;;;;;;;;;;;7.70;99.90;;;;;;5052316;28;20046;-70
2022/02/10 18:12:58;;;;;;;;;;;7.70;99.90;;;;;;5037353;28;19917;-70
2022/02/10 18:15:31;;;;;;;;;;;7.70;99.90;;;;;;5030960;28;20278;-71
2022/02/10 18:18:02;;;;;;;;;;;7.70;99.90;;;;;;5040286;28;19913;-69
2022/02/10 18:20:36;;;;;;;;;;;7.60;99.90;;;;;;5042618;28;19913;-71
2022/02/10 18:25:56;;;;;;;;;;;7.50;99.90;;;;;;5038969;28;19913;-72
2022/02/10 18:28:52;;;;;;;;;;;7.60;99.90;;;;;;5030872;28;19931;-70
2022/02/10 19:08:11;;;;;;;;;;;7.20;99.90;;;;;;5048689;28;20262;-69
2022/02/10 19:10:44;;;;;;;;;;;7.10;99.90;;;;;;5042811;28;19911;-69
2022/02/10 19:13:10;;;;;;;;;;;7.20;99.90;;;;;;5042421;28;19913;-69
2022/02/10 19:15:36;;;;;;;;;;;7.20;99.90;;;;;;5049942;28;19905;-68
2022/02/10 19:18:06;;;;;;;;;;;7.30;99.90;;;;;;5049084;28;20262;-69
2022/02/10 19:20:33;;;;;;;;;;;7.40;99.90;;;;;;5037107;28;20355;-68
2022/02/10 19:22:59;;;;;;;;;;;7.30;99.90;;;;;;5039862;28;20359;-70
2022/02/10 19:25:25;;;;;;;;;;;7.30;99.90;;;;;;5049347;28;19905;-70
2022/02/10 19:27:50;;;;;;;;;;;7.30;99.90;;;;;;5044421;28;19916;-68
2022/02/10 19:30:21;;;;;;;;;;;7.10;99.90;;;;;;5040553;28;19909;-70
2022/02/10 19:32:55;;;;;;;;;;;7.10;99.90;;;;;;5034195;28;20251;-69
2022/02/10 19:35:23;;;;;;;;;;;7.00;99.90;;;;;;5027902;28;20141;-68
2022/02/10 19:37:56;;;;;;;;;;;6.90;99.90;;;;;;5037843;28;19904;-68
2022/02/10 19:40:22;;;;;;;;;;;7.00;99.90;;;;;;5041681;28;19916;-68
2022/02/10 19:42:49;;;;;;;;;;;7.10;99.90;;;;;;5044309;28;19909;-68
2022/02/10 19:45:15;;;;;;;;;;;7.10;99.90;;;;;;5034922;28;19909;-67
2022/02/10 19:47:41;;;;;;;;;;;7.00;99.90;;;;;;5034123;28;19971;-69
2022/02/10 19:50:14;;;;;;;;;;;7.00;99.90;;;;;;5035708;28;19905;-69
2022/02/10 19:52:42;;;;;;;;;;;7.00;99.90;;;;;;5044981;28;19944;-73
2022/02/10 19:55:11;;;;;;;;;;;7.10;99.90;;;;;;5034342;28;20362;-69
2022/02/10 19:57:39;;;;;;;;;;;7.20;99.90;;;;;;5034327;28;19993;-68
2022/02/10 20:00:08;;;;;;;;;;;7.20;99.90;;;;;;5039903;28;19912;-77
2022/02/10 20:02:34;;;;;;;;;;;7.10;99.90;;;;;;5033597;28;20373;-69
2022/02/10 20:04:59;;;;;;;;;;;7.20;99.90;;;;;;5033411;28;19941;-68
2022/02/10 20:07:25;;;;;;;;;;;7.10;99.90;;;;;;5032260;28;19912;-68
2022/02/10 20:09:51;;;;;;;;;;;7.10;99.90;;;;;;5035703;28;19954;-68
2022/02/10 20:12:17;;;;;;;;;;;7.20;99.90;;;;;;5045557;28;19909;-69
2022/02/10 20:14:43;;;;;;;;;;;7.20;99.90;;;;;;5052769;28;19917;-70
2022/02/10 20:17:08;;;;;;;;;;;7.30;99.90;;;;;;5051657;28;19912;-70
2022/02/10 20:19:35;;;;;;;;;;;7.30;99.90;;;;;;5051896;28;20235;-68
2022/02/10 20:22:00;;;;;;;;;;;7.30;99.90;;;;;;5051754;28;20363;-65
2022/02/10 20:24:26;;;;;;;;;;;7.90;99.90;;;;;;5035419;28;19928;-68
2022/02/10 20:26:51;;;;;;;;;;;8.10;99.90;;;;;;5037590;28;20351;-68
2022/02/10 20:29:17;;;;;;;;;;;7.70;99.90;;;;;;5037138;28;20359;-67
2022/02/10 20:31:43;;;;;;;;;;;7.50;99.90;;;;;;5044491;28;19909;-70
2022/02/10 20:34:11;;;;;;;;;;;7.40;99.90;;;;;;5055916;28;19970;-69
2022/02/10 20:36:37;;;;;;;;;;;7.30;99.90;;;;;;5038684;28;19948;-67
2022/02/10 20:39:06;;;;;;;;;;;7.30;99.90;;;;;;5047586;28;20373;-67
2022/02/10 20:41:34;;;;;;;;;;;7.10;99.90;;;;;;5039663;28;19909;-68
2022/02/10 20:44:01;;;;;;;;;;;7.20;99.90;;;;;;5052977;28;19905;-69
2022/02/10 20:46:29;;;;;;;;;;;7.10;99.90;;;;;;5050566;28;19999;-69
2022/02/10 20:48:55;;;;;;;;;;;7.10;99.90;;;;;;5044160;28;19996;-69
2022/02/10 20:51:21;;;;;;;;;;;7.10;99.90;;;;;;5048594;28;19958;-69
2022/02/10 20:53:47;;;;;;;;;;;7.10;99.90;;;;;;5043124;28;19924;-69
2022/02/10 20:56:14;;;;;;;;;;;7.20;99.90;;;;;;5088864;28;19912;-69
2022/02/10 20:58:41;;;;;;;;;;;7.20;99.90;;;;;;5037353;28;19912;-70
2022/02/10 21:01:11;;;;;;;;;;;7.20;99.90;;;;;;5040412;28;19905;-72
2022/02/10 21:03:37;;;;;;;;;;;7.20;99.90;;;;;;5040992;28;19999;-69
2022/02/10 21:08:50;;;;;;;;;;;7.20;99.90;;;;;;5038051;28;19905;-70
2022/02/10 21:11:17;;;;;;;;;;;7.20;99.90;;;;;;5037391;28;20003;-72
2022/02/10 21:13:43;;;;;;;;;;;7.20;99.90;;;;;;5039902;28;20015;-69
2022/02/10 21:16:08;;;;;;;;;;;7.10;99.90;;;;;;5037512;28;20397;-69
2022/02/10 21:18:35;;;;;;;;;;;7.10;99.90;;;;;;5050569;28;19909;-70
2022/02/10 21:21:05;;;;;;;;;;;7.20;99.90;;;;;;5046385;28;20232;-70
2022/02/10 21:23:46;;;;;;;;;;;7.20;99.90;;;;;;5037801;28;19929;-68
2022/02/10 21:26:14;;;;;;;;;;;7.20;99.90;;;;;;5030940;28;20443;-69
2022/02/10 21:28:41;;;;;;;;;;;7.30;99.90;;;;;;5031261;28;19916;-71
2022/02/10 21:31:08;;;;;;;;;;;7.20;99.90;;;;;;5032611;28;19920;-76
2022/02/10 21:38:53;;;;;;;;;;;7.10;99.90;;;;;;5033935;28;19909;-68
2022/02/10 21:55:20;;;;;;;;;;;7.10;99.90;;;;;;5031317;28;20402;-68
2022/02/10 21:59:52;;;;;;;;;;;7.00;99.90;;;;;;5031350;28;20015;-68
2022/02/10 22:10:19;;;;;;;;;;;7.00;99.90;;;;;;5031019;28;19909;-68
2022/02/10 22:18:37;;;;;;;;;;;7.00;99.90;;;;;;5030900;28;19932;-69
2022/02/10 22:21:05;;;;;;;;;;;7.00;99.90;;;;;;5029604;28;19912;-68
2022/02/10 22:23:34;;;;;;;;;;;6.90;99.90;;;;;;5030889;28;20059;-68
2022/02/10 22:26:03;;;;;;;;;;;6.90;99.90;;;;;;5029694;28;19951;-67
2022/02/10 22:31:23;;;;;;;;;;;7.00;99.90;;;;;;5031657;28;19975;-68
2022/02/10 22:33:54;;;;;;;;;;;7.00;99.90;;;;;;5034450;28;19913;-67
2022/02/10 22:36:22;;;;;;;;;;;7.00;99.90;;;;;;5033835;28;20016;-68
2022/02/10 22:38:49;;;;;;;;;;;7.10;99.90;;;;;;5031980;28;19928;-66
2022/02/10 22:41:15;;;;;;;;;;;7.00;99.90;;;;;;5031662;28;19909;-67
2022/02/10 22:43:43;;;;;;;;;;;6.90;99.90;;;;;;5031978;28;20068;-70
2022/02/10 22:46:09;;;;;;;;;;;6.90;99.90;;;;;;5031732;28;19920;-68
2022/02/10 22:48:35;;;;;;;;;;;6.90;99.90;;;;;;5031655;28;19909;-70
2022/02/10 22:51:01;;;;;;;;;;;6.80;99.90;;;;;;5030190;28;19906;-67
2022/02/10 22:53:26;;;;;;;;;;;6.70;99.90;;;;;;5030219;28;20328;-68
2022/02/10 22:55:52;;;;;;;;;;;6.70;99.90;;;;;;5031013;28;19909;-69
2022/02/10 22:58:18;;;;;;;;;;;6.70;99.90;;;;;;5030173;28;20082;-68
2022/02/10 23:00:47;;;;;;;;;;;6.80;99.90;;;;;;5030576;28;19909;-69
2022/02/10 23:03:16;;;;;;;;;;;6.70;99.90;;;;;;5028513;28;19951;-66
2022/02/10 23:05:42;;;;;;;;;;;6.70;99.90;;;;;;5030606;28;19909;-70
2022/02/10 23:08:08;;;;;;;;;;;6.70;99.90;;;;;;5030809;28;20277;-69
2022/02/10 23:10:50;;;;;;;;;;;6.70;99.90;;;;;;5029036;28;19909;-67
2022/02/10 23:13:17;;;;;;;;;;;6.70;99.90;;;;;;5029667;28;20011;-69
2022/02/10 23:15:43;;;;;;;;;;;6.70;99.90;;;;;;5029879;28;19952;-68
2022/02/10 23:18:14;;;;;;;;;;;6.70;99.90;;;;;;5029586;28;19998;-66
2022/02/10 23:20:39;;;;;;;;;;;6.70;99.90;;;;;;5028299;28;20338;-67
2022/02/10 23:23:07;;;;;;;;;;;6.60;99.90;;;;;;5029698;28;19923;-65
2022/02/10 23:25:33;;;;;;;;;;;6.70;99.90;;;;;;5029099;28;19909;-66
2022/02/10 23:28:00;;;;;;;;;;;6.70;99.90;;;;;;5028003;28;19909;-68
2022/02/10 23:30:26;;;;;;;;;;;6.70;99.90;;;;;;5029112;28;19916;-66
2022/02/10 23:32:55;;;;;;;;;;;6.60;99.90;;;;;;5030210;28;19913;-66
2022/02/10 23:36:37;;;;;;;;;;;6.70;99.90;;;;;;5030040;28;20280;-65
2022/02/10 23:38:18;;;;;;;;;;;6.70;99.90;;;;;;5032363;28;20381;-71
2022/02/10 23:43:28;;;;;;;;;;;6.70;99.90;;;;;;5032042;28;20381;-68
2022/02/10 23:45:53;;;;;;;;;;;6.80;99.90;;;;;;5034861;28;19905;-67
2022/02/10 23:48:19;;;;;;;;;;;6.80;99.90;;;;;;5032381;28;19909;-66
2022/02/10 23:50:44;;;;;;;;;;;6.80;99.90;;;;;;5033631;28;20339;-68
2022/02/10 23:53:10;;;;;;;;;;;6.80;99.90;;;;;;5032134;28;20324;-67
2022/02/10 23:55:39;;;;;;;;;;;6.80;99.90;;;;;;5032974;28;19918;-68
